Terminal Aerodrome Forecast
Issued by NWS Sterling, VA

Home | Current Version | Previous Version | Text Only | Print | Product List | Glossary On
Versions: 1 2 3 4 5 6 7 8 9 10 11 12 13 14 15 16 17 18 19 20 21
000
FTUS41 KLWX 021456 AAA
TAFBWI
TAF AMD
KBWI 021456Z 0215/0318 VRB03KT P6SM SCT150 BKN250
     FM030900 32006KT 5SM BR SCT250
     FM031100 33005KT 5SM BR BKN050
     FM031300 35004KT P6SM BKN050
     FM031500 01004KT P6SM SCT250
     FM031700 VRB03KT P6SM SCT050=

USA.gov is the U.S. government's official web portal to all federal, state and local government web resources and services.